sensor_id;sensor_type;location;lat;lon;timestamp;P1;durP1;ratioP1;P2;durP2;ratioP2
14116;SDS011;7137;51.436;6.544;2023-04-29T00:02:50;52.13;;;37.93;;
14116;SDS011;7137;51.436;6.544;2023-04-29T00:05:51;58.27;;;38.63;;
14116;SDS011;7137;51.436;6.544;2023-04-29T00:08:53;53.63;;;38.80;;
14116;SDS011;7137;51.436;6.544;2023-04-29T00:11:55;56.30;;;38.57;;
14116;SDS011;7137;51.436;6.544;2023-04-29T00:14:57;55.87;;;39.23;;
14116;SDS011;7137;51.436;6.544;2023-04-29T00:18:00;58.07;;;39.53;;
14116;SDS011;7137;51.436;6.544;2023-04-29T00:21:02;58.00;;;40.10;;
14116;SDS011;7137;51.436;6.544;2023-04-29T00:24:05;55.23;;;38.87;;
14116;SDS011;7137;51.436;6.544;2023-04-29T00:27:07;56.73;;;40.53;;
14116;SDS011;7137;51.436;6.544;2023-04-29T00:30:10;59.57;;;39.93;;
14116;SDS011;7137;51.436;6.544;2023-04-29T00:33:13;58.53;;;40.87;;
14116;SDS011;7137;51.436;6.544;2023-04-29T00:36:15;63.53;;;42.40;;
14116;SDS011;7137;51.436;6.544;2023-04-29T00:39:16;62.83;;;40.53;;
14116;SDS011;7137;51.436;6.544;2023-04-29T00:42:18;63.63;;;43.37;;
14116;SDS011;7137;51.436;6.544;2023-04-29T00:45:22;69.53;;;43.93;;
14116;SDS011;7137;51.436;6.544;2023-04-29T00:48:25;75.17;;;46.67;;
14116;SDS011;7137;51.436;6.544;2023-04-29T00:51:26;79.40;;;47.47;;
14116;SDS011;7137;51.436;6.544;2023-04-29T00:54:28;80.43;;;47.80;;
14116;SDS011;7137;51.436;6.544;2023-04-29T00:57:30;86.80;;;48.03;;
14116;SDS011;7137;51.436;6.544;2023-04-29T01:00:34;90.00;;;48.13;;
14116;SDS011;7137;51.436;6.544;2023-04-29T01:03:38;89.73;;;49.50;;
14116;SDS011;7137;51.436;6.544;2023-04-29T01:06:45;94.63;;;50.20;;
14116;SDS011;7137;51.436;6.544;2023-04-29T01:09:59;96.03;;;50.67;;
14116;SDS011;7137;51.436;6.544;2023-04-29T01:13:05;89.63;;;47.90;;
14116;SDS011;7137;51.436;6.544;2023-04-29T01:16:10;85.70;;;47.90;;
14116;SDS011;7137;51.436;6.544;2023-04-29T01:19:19;81.80;;;46.23;;
14116;SDS011;7137;51.436;6.544;2023-04-29T01:22:39;78.17;;;44.07;;
14116;SDS011;7137;51.436;6.544;2023-04-29T01:25:42;73.93;;;42.57;;
14116;SDS011;7137;51.436;6.544;2023-04-29T01:28:45;62.53;;;38.57;;
14116;SDS011;7137;51.436;6.544;2023-04-29T01:31:54;65.43;;;39.60;;
14116;SDS011;7137;51.436;6.544;2023-04-29T01:35:05;62.80;;;38.87;;
14116;SDS011;7137;51.436;6.544;2023-04-29T01:38:16;63.57;;;38.87;;
14116;SDS011;7137;51.436;6.544;2023-04-29T01:41:34;63.30;;;39.03;;
14116;SDS011;7137;51.436;6.544;2023-04-29T01:44:39;68.83;;;39.27;;
14116;SDS011;7137;51.436;6.544;2023-04-29T01:47:42;69.27;;;40.57;;
14116;SDS011;7137;51.436;6.544;2023-04-29T01:50:46;65.87;;;40.77;;
14116;SDS011;7137;51.436;6.544;2023-04-29T01:53:48;64.60;;;39.87;;
14116;SDS011;7137;51.436;6.544;2023-04-29T01:56:51;66.90;;;40.03;;
14116;SDS011;7137;51.436;6.544;2023-04-29T01:59:53;75.40;;;43.00;;
14116;SDS011;7137;51.436;6.544;2023-04-29T02:02:54;78.33;;;44.47;;
14116;SDS011;7137;51.436;6.544;2023-04-29T02:05:56;72.10;;;44.37;;
14116;SDS011;7137;51.436;6.544;2023-04-29T02:08:58;70.80;;;43.57;;
14116;SDS011;7137;51.436;6.544;2023-04-29T02:12:00;77.83;;;44.23;;
14116;SDS011;7137;51.436;6.544;2023-04-29T02:15:03;78.87;;;45.93;;
14116;SDS011;7137;51.436;6.544;2023-04-29T02:18:06;76.73;;;45.30;;
14116;SDS011;7137;51.436;6.544;2023-04-29T02:21:07;80.13;;;44.67;;
14116;SDS011;7137;51.436;6.544;2023-04-29T02:24:09;79.70;;;46.20;;
14116;SDS011;7137;51.436;6.544;2023-04-29T02:27:12;79.73;;;46.30;;
14116;SDS011;7137;51.436;6.544;2023-04-29T02:30:13;81.60;;;48.53;;
14116;SDS011;7137;51.436;6.544;2023-04-29T02:33:15;82.50;;;48.53;;
14116;SDS011;7137;51.436;6.544;2023-04-29T02:36:17;80.73;;;46.57;;
14116;SDS011;7137;51.436;6.544;2023-04-29T02:39:19;78.07;;;45.97;;
14116;SDS011;7137;51.436;6.544;2023-04-29T02:42:22;74.30;;;44.37;;
14116;SDS011;7137;51.436;6.544;2023-04-29T02:45:23;71.73;;;44.30;;
14116;SDS011;7137;51.436;6.544;2023-04-29T02:48:25;61.53;;;39.10;;
14116;SDS011;7137;51.436;6.544;2023-04-29T02:51:26;69.10;;;42.97;;
14116;SDS011;7137;51.436;6.544;2023-04-29T02:54:28;59.60;;;38.33;;
14116;SDS011;7137;51.436;6.544;2023-04-29T02:57:32;56.37;;;35.73;;
14116;SDS011;7137;51.436;6.544;2023-04-29T03:00:33;48.77;;;32.63;;
14116;SDS011;7137;51.436;6.544;2023-04-29T03:03:35;47.33;;;31.23;;
14116;SDS011;7137;51.436;6.544;2023-04-29T03:06:36;45.63;;;29.20;;
14116;SDS011;7137;51.436;6.544;2023-04-29T03:09:38;44.33;;;29.03;;
14116;SDS011;7137;51.436;6.544;2023-04-29T03:12:41;42.23;;;28.43;;
14116;SDS011;7137;51.436;6.544;2023-04-29T03:15:42;40.57;;;27.73;;
14116;SDS011;7137;51.436;6.544;2023-04-29T03:18:45;40.30;;;27.73;;
14116;SDS011;7137;51.436;6.544;2023-04-29T03:21:46;42.00;;;26.87;;
14116;SDS011;7137;51.436;6.544;2023-04-29T03:24:49;43.27;;;28.23;;
14116;SDS011;7137;51.436;6.544;2023-04-29T03:27:56;39.90;;;27.43;;
14116;SDS011;7137;51.436;6.544;2023-04-29T03:30:57;40.23;;;26.67;;
14116;SDS011;7137;51.436;6.544;2023-04-29T03:33:59;38.90;;;26.77;;
14116;SDS011;7137;51.436;6.544;2023-04-29T03:37:01;39.90;;;26.37;;
14116;SDS011;7137;51.436;6.544;2023-04-29T03:40:02;39.50;;;26.57;;
14116;SDS011;7137;51.436;6.544;2023-04-29T03:43:06;36.80;;;26.97;;
14116;SDS011;7137;51.436;6.544;2023-04-29T03:46:08;36.77;;;25.70;;
14116;SDS011;7137;51.436;6.544;2023-04-29T03:49:09;36.40;;;25.63;;
14116;SDS011;7137;51.436;6.544;2023-04-29T03:52:11;35.60;;;24.80;;
14116;SDS011;7137;51.436;6.544;2023-04-29T03:55:13;34.77;;;24.17;;
14116;SDS011;7137;51.436;6.544;2023-04-29T03:58:16;33.03;;;24.33;;
14116;SDS011;7137;51.436;6.544;2023-04-29T04:01:17;33.30;;;24.77;;
14116;SDS011;7137;51.436;6.544;2023-04-29T04:04:19;32.77;;;23.57;;
14116;SDS011;7137;51.436;6.544;2023-04-29T04:07:22;31.60;;;23.10;;
14116;SDS011;7137;51.436;6.544;2023-04-29T04:10:24;32.30;;;23.83;;
14116;SDS011;7137;51.436;6.544;2023-04-29T04:13:26;32.30;;;23.37;;
14116;SDS011;7137;51.436;6.544;2023-04-29T04:16:28;34.63;;;23.17;;
14116;SDS011;7137;51.436;6.544;2023-04-29T04:19:30;32.10;;;23.57;;
14116;SDS011;7137;51.436;6.544;2023-04-29T04:22:31;32.00;;;22.47;;
14116;SDS011;7137;51.436;6.544;2023-04-29T04:25:33;31.20;;;21.93;;
14116;SDS011;7137;51.436;6.544;2023-04-29T04:28:36;32.80;;;22.83;;
14116;SDS011;7137;51.436;6.544;2023-04-29T04:31:37;30.90;;;23.67;;
14116;SDS011;7137;51.436;6.544;2023-04-29T04:34:39;32.60;;;23.40;;
14116;SDS011;7137;51.436;6.544;2023-04-29T04:37:41;33.03;;;23.80;;
14116;SDS011;7137;51.436;6.544;2023-04-29T04:40:42;30.37;;;21.57;;
14116;SDS011;7137;51.436;6.544;2023-04-29T04:43:45;34.00;;;24.90;;
14116;SDS011;7137;51.436;6.544;2023-04-29T04:46:47;31.30;;;23.17;;
14116;SDS011;7137;51.436;6.544;2023-04-29T04:49:49;30.33;;;23.00;;
14116;SDS011;7137;51.436;6.544;2023-04-29T04:52:53;31.30;;;23.10;;
14116;SDS011;7137;51.436;6.544;2023-04-29T04:55:54;29.50;;;22.43;;
14116;SDS011;7137;51.436;6.544;2023-04-29T04:59:02;31.63;;;23.53;;
14116;SDS011;7137;51.436;6.544;2023-04-29T05:02:04;31.47;;;22.90;;
14116;SDS011;7137;51.436;6.544;2023-04-29T05:05:05;28.93;;;22.83;;
14116;SDS011;7137;51.436;6.544;2023-04-29T05:08:07;30.20;;;22.83;;
14116;SDS011;7137;51.436;6.544;2023-04-29T05:11:14;28.70;;;22.20;;
14116;SDS011;7137;51.436;6.544;2023-04-29T05:14:18;31.63;;;22.93;;
14116;SDS011;7137;51.436;6.544;2023-04-29T05:17:19;32.10;;;22.40;;
14116;SDS011;7137;51.436;6.544;2023-04-29T05:20:21;30.73;;;23.10;;
14116;SDS011;7137;51.436;6.544;2023-04-29T05:23:23;27.50;;;22.67;;
14116;SDS011;7137;51.436;6.544;2023-04-29T05:26:24;27.87;;;21.33;;
14116;SDS011;7137;51.436;6.544;2023-04-29T05:29:27;27.97;;;22.00;;
14116;SDS011;7137;51.436;6.544;2023-04-29T05:32:28;27.37;;;21.97;;
14116;SDS011;7137;51.436;6.544;2023-04-29T05:35:30;28.53;;;22.23;;
14116;SDS011;7137;51.436;6.544;2023-04-29T05:38:32;28.77;;;21.93;;
14116;SDS011;7137;51.436;6.544;2023-04-29T05:41:33;30.57;;;22.40;;
14116;SDS011;7137;51.436;6.544;2023-04-29T05:44:36;27.30;;;21.47;;
14116;SDS011;7137;51.436;6.544;2023-04-29T05:47:38;28.53;;;21.13;;
14116;SDS011;7137;51.436;6.544;2023-04-29T05:50:40;29.23;;;22.47;;
14116;SDS011;7137;51.436;6.544;2023-04-29T05:53:42;26.87;;;20.73;;
14116;SDS011;7137;51.436;6.544;2023-04-29T05:56:43;28.27;;;21.47;;
14116;SDS011;7137;51.436;6.544;2023-04-29T05:59:46;27.77;;;21.13;;
14116;SDS011;7137;51.436;6.544;2023-04-29T06:02:48;27.53;;;21.60;;
14116;SDS011;7137;51.436;6.544;2023-04-29T06:05:49;27.37;;;20.90;;
14116;SDS011;7137;51.436;6.544;2023-04-29T06:08:52;27.03;;;20.93;;
14116;SDS011;7137;51.436;6.544;2023-04-29T06:11:54;26.17;;;20.50;;
14116;SDS011;7137;51.436;6.544;2023-04-29T06:14:56;25.47;;;20.73;;
14116;SDS011;7137;51.436;6.544;2023-04-29T06:17:58;27.50;;;21.20;;
14116;SDS011;7137;51.436;6.544;2023-04-29T06:21:00;25.57;;;20.90;;
14116;SDS011;7137;51.436;6.544;2023-04-29T06:24:01;25.13;;;20.23;;
14116;SDS011;7137;51.436;6.544;2023-04-29T06:27:03;23.23;;;19.93;;
14116;SDS011;7137;51.436;6.544;2023-04-29T06:30:06;23.40;;;19.33;;
14116;SDS011;7137;51.436;6.544;2023-04-29T06:33:09;23.13;;;18.87;;
14116;SDS011;7137;51.436;6.544;2023-04-29T06:36:11;21.60;;;18.43;;
14116;SDS011;7137;51.436;6.544;2023-04-29T06:39:13;23.13;;;19.00;;
14116;SDS011;7137;51.436;6.544;2023-04-29T06:42:15;23.37;;;17.37;;
14116;SDS011;7137;51.436;6.544;2023-04-29T06:45:18;21.20;;;18.00;;
14116;SDS011;7137;51.436;6.544;2023-04-29T06:48:20;23.40;;;18.13;;
14116;SDS011;7137;51.436;6.544;2023-04-29T06:51:21;22.03;;;16.90;;
14116;SDS011;7137;51.436;6.544;2023-04-29T06:54:24;22.37;;;18.17;;
14116;SDS011;7137;51.436;6.544;2023-04-29T06:57:26;23.03;;;18.40;;
14116;SDS011;7137;51.436;6.544;2023-04-29T07:00:29;22.20;;;18.43;;
14116;SDS011;7137;51.436;6.544;2023-04-29T07:03:31;21.23;;;17.60;;
14116;SDS011;7137;51.436;6.544;2023-04-29T07:06:32;23.43;;;17.80;;
14116;SDS011;7137;51.436;6.544;2023-04-29T07:09:34;21.67;;;17.63;;
14116;SDS011;7137;51.436;6.544;2023-04-29T07:12:35;21.43;;;16.63;;
14116;SDS011;7137;51.436;6.544;2023-04-29T07:15:38;19.33;;;16.43;;
14116;SDS011;7137;51.436;6.544;2023-04-29T07:18:41;20.37;;;17.23;;
14116;SDS011;7137;51.436;6.544;2023-04-29T07:21:42;18.87;;;16.30;;
14116;SDS011;7137;51.436;6.544;2023-04-29T07:24:44;18.90;;;16.80;;
14116;SDS011;7137;51.436;6.544;2023-04-29T07:27:45;17.90;;;15.90;;
14116;SDS011;7137;51.436;6.544;2023-04-29T07:30:49;19.20;;;16.00;;
14116;SDS011;7137;51.436;6.544;2023-04-29T07:33:51;20.20;;;16.67;;
14116;SDS011;7137;51.436;6.544;2023-04-29T07:36:52;20.27;;;16.40;;
14116;SDS011;7137;51.436;6.544;2023-04-29T07:39:55;18.60;;;16.27;;
14116;SDS011;7137;51.436;6.544;2023-04-29T07:42:56;18.87;;;16.80;;
14116;SDS011;7137;51.436;6.544;2023-04-29T07:45:59;20.07;;;17.30;;
14116;SDS011;7137;51.436;6.544;2023-04-29T07:49:01;19.37;;;16.53;;
14116;SDS011;7137;51.436;6.544;2023-04-29T07:52:03;20.97;;;17.03;;
14116;SDS011;7137;51.436;6.544;2023-04-29T07:55:05;20.50;;;16.80;;
14116;SDS011;7137;51.436;6.544;2023-04-29T07:58:07;19.90;;;17.10;;
14116;SDS011;7137;51.436;6.544;2023-04-29T08:01:10;19.77;;;17.03;;
14116;SDS011;7137;51.436;6.544;2023-04-29T08:04:12;21.40;;;17.83;;
14116;SDS011;7137;51.436;6.544;2023-04-29T08:07:13;22.97;;;17.10;;
14116;SDS011;7137;51.436;6.544;2023-04-29T08:10:15;22.97;;;17.60;;
14116;SDS011;7137;51.436;6.544;2023-04-29T08:13:17;21.63;;;18.23;;
14116;SDS011;7137;51.436;6.544;2023-04-29T08:16:20;21.93;;;18.00;;
14116;SDS011;7137;51.436;6.544;2023-04-29T08:19:23;24.07;;;18.67;;
14116;SDS011;7137;51.436;6.544;2023-04-29T08:22:25;22.63;;;20.00;;
14116;SDS011;7137;51.436;6.544;2023-04-29T08:25:26;24.63;;;19.27;;
14116;SDS011;7137;51.436;6.544;2023-04-29T08:28:28;24.43;;;20.00;;
14116;SDS011;7137;51.436;6.544;2023-04-29T08:31:31;26.00;;;20.77;;
14116;SDS011;7137;51.436;6.544;2023-04-29T08:34:32;26.03;;;20.33;;
14116;SDS011;7137;51.436;6.544;2023-04-29T08:37:35;25.77;;;21.20;;
14116;SDS011;7137;51.436;6.544;2023-04-29T08:40:40;26.50;;;20.93;;
14116;SDS011;7137;51.436;6.544;2023-04-29T08:43:44;25.43;;;21.70;;
14116;SDS011;7137;51.436;6.544;2023-04-29T08:46:48;27.17;;;22.33;;
14116;SDS011;7137;51.436;6.544;2023-04-29T08:49:52;28.33;;;21.10;;
14116;SDS011;7137;51.436;6.544;2023-04-29T08:52:54;26.33;;;20.83;;
14116;SDS011;7137;51.436;6.544;2023-04-29T08:55:56;26.13;;;21.13;;
14116;SDS011;7137;51.436;6.544;2023-04-29T08:59:03;26.47;;;20.90;;
14116;SDS011;7137;51.436;6.544;2023-04-29T09:02:08;27.40;;;20.97;;
14116;SDS011;7137;51.436;6.544;2023-04-29T09:05:16;28.13;;;20.50;;
14116;SDS011;7137;51.436;6.544;2023-04-29T09:08:18;25.90;;;20.63;;
14116;SDS011;7137;51.436;6.544;2023-04-29T09:11:21;23.43;;;20.93;;
14116;SDS011;7137;51.436;6.544;2023-04-29T09:14:23;26.03;;;19.87;;
14116;SDS011;7137;51.436;6.544;2023-04-29T09:17:51;28.73;;;22.03;;
14116;SDS011;7137;51.436;6.544;2023-04-29T09:20:52;26.20;;;21.10;;
14116;SDS011;7137;51.436;6.544;2023-04-29T09:23:54;23.60;;;21.00;;
14116;SDS011;7137;51.436;6.544;2023-04-29T09:26:57;26.87;;;20.80;;
14116;SDS011;7137;51.436;6.544;2023-04-29T09:30:00;24.03;;;20.90;;
14116;SDS011;7137;51.436;6.544;2023-04-29T09:33:04;22.87;;;19.33;;
14116;SDS011;7137;51.436;6.544;2023-04-29T09:36:07;24.37;;;20.60;;
14116;SDS011;7137;51.436;6.544;2023-04-29T09:39:09;22.80;;;19.60;;
14116;SDS011;7137;51.436;6.544;2023-04-29T09:42:11;22.07;;;19.47;;
14116;SDS011;7137;51.436;6.544;2023-04-29T09:45:14;23.93;;;19.43;;
14116;SDS011;7137;51.436;6.544;2023-04-29T09:48:36;24.03;;;19.70;;
14116;SDS011;7137;51.436;6.544;2023-04-29T09:51:43;22.40;;;18.80;;
14116;SDS011;7137;51.436;6.544;2023-04-29T09:54:52;22.40;;;18.93;;
14116;SDS011;7137;51.436;6.544;2023-04-29T09:58:05;21.40;;;18.47;;
14116;SDS011;7137;51.436;6.544;2023-04-29T10:01:07;21.03;;;18.93;;
14116;SDS011;7137;51.436;6.544;2023-04-29T10:04:13;21.93;;;19.43;;
14116;SDS011;7137;51.436;6.544;2023-04-29T10:07:16;21.63;;;19.33;;
14116;SDS011;7137;51.436;6.544;2023-04-29T10:10:19;20.77;;;18.63;;
14116;SDS011;7137;51.436;6.544;2023-04-29T10:13:23;21.03;;;18.10;;
14116;SDS011;7137;51.436;6.544;2023-04-29T10:16:27;19.53;;;17.43;;
14116;SDS011;7137;51.436;6.544;2023-04-29T10:19:32;20.33;;;17.87;;
14116;SDS011;7137;51.436;6.544;2023-04-29T10:22:39;20.80;;;16.83;;
14116;SDS011;7137;51.436;6.544;2023-04-29T10:25:45;19.27;;;17.20;;
14116;SDS011;7137;51.436;6.544;2023-04-29T10:28:50;22.87;;;17.67;;
14116;SDS011;7137;51.436;6.544;2023-04-29T10:31:54;21.80;;;18.33;;
14116;SDS011;7137;51.436;6.544;2023-04-29T10:34:58;20.53;;;17.40;;
14116;SDS011;7137;51.436;6.544;2023-04-29T10:38:04;18.27;;;16.27;;
14116;SDS011;7137;51.436;6.544;2023-04-29T10:41:09;19.13;;;16.53;;
14116;SDS011;7137;51.436;6.544;2023-04-29T10:44:19;18.50;;;16.47;;
14116;SDS011;7137;51.436;6.544;2023-04-29T10:47:21;20.70;;;17.43;;
14116;SDS011;7137;51.436;6.544;2023-04-29T10:50:24;18.17;;;16.30;;
14116;SDS011;7137;51.436;6.544;2023-04-29T10:53:28;19.00;;;15.87;;
14116;SDS011;7137;51.436;6.544;2023-04-29T10:56:43;18.33;;;16.07;;
14116;SDS011;7137;51.436;6.544;2023-04-29T10:59:49;17.67;;;15.77;;
14116;SDS011;7137;51.436;6.544;2023-04-29T11:02:54;19.33;;;17.10;;
14116;SDS011;7137;51.436;6.544;2023-04-29T11:06:07;17.53;;;15.63;;
14116;SDS011;7137;51.436;6.544;2023-04-29T11:09:10;19.57;;;15.97;;
14116;SDS011;7137;51.436;6.544;2023-04-29T11:12:13;20.13;;;16.03;;
14116;SDS011;7137;51.436;6.544;2023-04-29T11:15:20;17.50;;;15.67;;
14116;SDS011;7137;51.436;6.544;2023-04-29T11:18:22;18.40;;;15.90;;
14116;SDS011;7137;51.436;6.544;2023-04-29T11:21:25;17.70;;;15.50;;
14116;SDS011;7137;51.436;6.544;2023-04-29T11:24:27;18.37;;;15.20;;
14116;SDS011;7137;51.436;6.544;2023-04-29T11:27:29;17.27;;;14.77;;
14116;SDS011;7137;51.436;6.544;2023-04-29T11:30:32;17.73;;;14.53;;
14116;SDS011;7137;51.436;6.544;2023-04-29T11:33:35;16.53;;;14.67;;
14116;SDS011;7137;51.436;6.544;2023-04-29T11:36:38;16.43;;;14.73;;
14116;SDS011;7137;51.436;6.544;2023-04-29T11:39:40;17.20;;;15.17;;
14116;SDS011;7137;51.436;6.544;2023-04-29T11:42:43;16.00;;;14.30;;
14116;SDS011;7137;51.436;6.544;2023-04-29T11:45:46;18.27;;;14.50;;
14116;SDS011;7137;51.436;6.544;2023-04-29T11:48:48;16.87;;;14.00;;
14116;SDS011;7137;51.436;6.544;2023-04-29T11:51:51;18.53;;;13.77;;
14116;SDS011;7137;51.436;6.544;2023-04-29T11:54:53;16.43;;;13.70;;
14116;SDS011;7137;51.436;6.544;2023-04-29T11:57:55;15.23;;;13.57;;
14116;SDS011;7137;51.436;6.544;2023-04-29T12:00:57;13.47;;;12.07;;
14116;SDS011;7137;51.436;6.544;2023-04-29T12:03:59;14.33;;;11.87;;
14116;SDS011;7137;51.436;6.544;2023-04-29T12:07:03;14.37;;;12.07;;
14116;SDS011;7137;51.436;6.544;2023-04-29T12:10:06;12.30;;;11.00;;
14116;SDS011;7137;51.436;6.544;2023-04-29T12:13:09;13.23;;;10.77;;
14116;SDS011;7137;51.436;6.544;2023-04-29T12:16:11;13.57;;;10.40;;
14116;SDS011;7137;51.436;6.544;2023-04-29T12:19:13;12.97;;;11.13;;
14116;SDS011;7137;51.436;6.544;2023-04-29T12:22:16;12.63;;;11.20;;
14116;SDS011;7137;51.436;6.544;2023-04-29T12:25:23;14.33;;;11.30;;
14116;SDS011;7137;51.436;6.544;2023-04-29T12:28:26;14.97;;;12.30;;
14116;SDS011;7137;51.436;6.544;2023-04-29T12:31:32;13.13;;;11.83;;
14116;SDS011;7137;51.436;6.544;2023-04-29T12:34:35;15.23;;;12.17;;
14116;SDS011;7137;51.436;6.544;2023-04-29T12:37:38;12.97;;;11.67;;
14116;SDS011;7137;51.436;6.544;2023-04-29T12:40:40;14.30;;;11.20;;
14116;SDS011;7137;51.436;6.544;2023-04-29T12:43:42;12.30;;;10.27;;
14116;SDS011;7137;51.436;6.544;2023-04-29T12:46:43;11.20;;;9.70;;
14116;SDS011;7137;51.436;6.544;2023-04-29T12:49:45;11.27;;;9.87;;
14116;SDS011;7137;51.436;6.544;2023-04-29T12:52:50;12.33;;;9.70;;
14116;SDS011;7137;51.436;6.544;2023-04-29T12:55:51;10.50;;;9.40;;
14116;SDS011;7137;51.436;6.544;2023-04-29T12:58:54;10.83;;;9.07;;
14116;SDS011;7137;51.436;6.544;2023-04-29T13:01:55;11.37;;;9.40;;
14116;SDS011;7137;51.436;6.544;2023-04-29T13:04:57;10.83;;;8.53;;
14116;SDS011;7137;51.436;6.544;2023-04-29T13:08:01;12.67;;;9.43;;
14116;SDS011;7137;51.436;6.544;2023-04-29T13:11:04;12.27;;;9.20;;
14116;SDS011;7137;51.436;6.544;2023-04-29T13:14:06;12.43;;;9.30;;
14116;SDS011;7137;51.436;6.544;2023-04-29T13:17:08;11.13;;;9.37;;
14116;SDS011;7137;51.436;6.544;2023-04-29T13:20:10;10.07;;;8.97;;
14116;SDS011;7137;51.436;6.544;2023-04-29T13:23:13;10.20;;;8.97;;
14116;SDS011;7137;51.436;6.544;2023-04-29T13:26:15;12.53;;;8.87;;
14116;SDS011;7137;51.436;6.544;2023-04-29T13:29:17;10.63;;;8.50;;
14116;SDS011;7137;51.436;6.544;2023-04-29T13:32:18;11.13;;;8.70;;
14116;SDS011;7137;51.436;6.544;2023-04-29T13:35:22;11.23;;;8.07;;
14116;SDS011;7137;51.436;6.544;2023-04-29T13:38:25;10.80;;;8.33;;
14116;SDS011;7137;51.436;6.544;2023-04-29T13:41:26;10.57;;;8.40;;
14116;SDS011;7137;51.436;6.544;2023-04-29T13:44:28;10.00;;;8.57;;
14116;SDS011;7137;51.436;6.544;2023-04-29T13:47:30;11.47;;;8.47;;
14116;SDS011;7137;51.436;6.544;2023-04-29T13:50:32;9.33;;;8.07;;
14116;SDS011;7137;51.436;6.544;2023-04-29T13:53:34;9.77;;;8.27;;
14116;SDS011;7137;51.436;6.544;2023-04-29T13:56:36;11.97;;;8.70;;
14116;SDS011;7137;51.436;6.544;2023-04-29T13:59:37;10.00;;;8.73;;
14116;SDS011;7137;51.436;6.544;2023-04-29T14:02:39;11.37;;;9.77;;
14116;SDS011;7137;51.436;6.544;2023-04-29T14:05:41;13.93;;;10.67;;
14116;SDS011;7137;51.436;6.544;2023-04-29T14:08:44;13.17;;;9.80;;
14116;SDS011;7137;51.436;6.544;2023-04-29T14:11:46;10.87;;;8.73;;
14116;SDS011;7137;51.436;6.544;2023-04-29T14:14:48;10.07;;;7.40;;
14116;SDS011;7137;51.436;6.544;2023-04-29T14:17:49;9.93;;;8.10;;
14116;SDS011;7137;51.436;6.544;2023-04-29T14:20:52;10.30;;;8.33;;
14116;SDS011;7137;51.436;6.544;2023-04-29T14:23:55;9.10;;;7.60;;
14116;SDS011;7137;51.436;6.544;2023-04-29T14:26:57;10.13;;;6.77;;
14116;SDS011;7137;51.436;6.544;2023-04-29T14:30:01;8.60;;;6.93;;
14116;SDS011;7137;51.436;6.544;2023-04-29T14:33:03;8.73;;;7.50;;
14116;SDS011;7137;51.436;6.544;2023-04-29T14:36:05;9.53;;;7.30;;
14116;SDS011;7137;51.436;6.544;2023-04-29T14:39:08;10.03;;;7.20;;
14116;SDS011;7137;51.436;6.544;2023-04-29T14:42:10;9.20;;;6.87;;
14116;SDS011;7137;51.436;6.544;2023-04-29T14:45:11;10.33;;;7.10;;
14116;SDS011;7137;51.436;6.544;2023-04-29T14:48:13;10.63;;;7.50;;
14116;SDS011;7137;51.436;6.544;2023-04-29T14:51:15;8.53;;;7.57;;
14116;SDS011;7137;51.436;6.544;2023-04-29T14:54:17;10.20;;;7.73;;
14116;SDS011;7137;51.436;6.544;2023-04-29T14:57:19;10.37;;;7.97;;
14116;SDS011;7137;51.436;6.544;2023-04-29T15:00:21;9.27;;;6.97;;
14116;SDS011;7137;51.436;6.544;2023-04-29T15:03:22;9.50;;;7.67;;
14116;SDS011;7137;51.436;6.544;2023-04-29T15:06:24;9.60;;;6.90;;
14116;SDS011;7137;51.436;6.544;2023-04-29T15:09:27;9.37;;;7.17;;
14116;SDS011;7137;51.436;6.544;2023-04-29T15:12:29;9.40;;;7.30;;
14116;SDS011;7137;51.436;6.544;2023-04-29T15:15:31;9.03;;;6.97;;
14116;SDS011;7137;51.436;6.544;2023-04-29T15:18:32;9.17;;;7.17;;
14116;SDS011;7137;51.436;6.544;2023-04-29T15:21:34;8.00;;;6.90;;
14116;SDS011;7137;51.436;6.544;2023-04-29T15:24:37;9.20;;;6.73;;
14116;SDS011;7137;51.436;6.544;2023-04-29T15:27:38;8.47;;;6.67;;
14116;SDS011;7137;51.436;6.544;2023-04-29T15:30:40;8.03;;;6.30;;
14116;SDS011;7137;51.436;6.544;2023-04-29T15:33:42;9.20;;;6.80;;
14116;SDS011;7137;51.436;6.544;2023-04-29T15:36:43;7.43;;;6.07;;
14116;SDS011;7137;51.436;6.544;2023-04-29T15:39:46;8.60;;;6.80;;
14116;SDS011;7137;51.436;6.544;2023-04-29T15:42:48;9.33;;;6.53;;
14116;SDS011;7137;51.436;6.544;2023-04-29T15:45:49;10.37;;;8.13;;
14116;SDS011;7137;51.436;6.544;2023-04-29T15:48:51;8.37;;;6.70;;
14116;SDS011;7137;51.436;6.544;2023-04-29T15:51:52;8.40;;;6.80;;
14116;SDS011;7137;51.436;6.544;2023-04-29T15:54:55;9.43;;;5.63;;
14116;SDS011;7137;51.436;6.544;2023-04-29T15:57:57;9.10;;;6.00;;
14116;SDS011;7137;51.436;6.544;2023-04-29T16:00:58;7.47;;;6.03;;
14116;SDS011;7137;51.436;6.544;2023-04-29T16:04:00;8.23;;;5.70;;
14116;SDS011;7137;51.436;6.544;2023-04-29T16:07:02;8.00;;;5.60;;
14116;SDS011;7137;51.436;6.544;2023-04-29T16:10:06;7.23;;;5.30;;
14116;SDS011;7137;51.436;6.544;2023-04-29T16:13:08;7.40;;;5.33;;
14116;SDS011;7137;51.436;6.544;2023-04-29T16:16:10;7.20;;;5.27;;
14116;SDS011;7137;51.436;6.544;2023-04-29T16:19:11;7.83;;;6.10;;
14116;SDS011;7137;51.436;6.544;2023-04-29T16:22:13;8.83;;;5.77;;
14116;SDS011;7137;51.436;6.544;2023-04-29T16:25:16;7.70;;;5.57;;
14116;SDS011;7137;51.436;6.544;2023-04-29T16:28:17;7.73;;;5.77;;
14116;SDS011;7137;51.436;6.544;2023-04-29T16:31:19;9.13;;;6.50;;
14116;SDS011;7137;51.436;6.544;2023-04-29T16:34:20;8.13;;;5.93;;
14116;SDS011;7137;51.436;6.544;2023-04-29T16:37:22;9.27;;;6.30;;
14116;SDS011;7137;51.436;6.544;2023-04-29T16:40:25;9.17;;;6.20;;
14116;SDS011;7137;51.436;6.544;2023-04-29T16:43:28;7.30;;;5.60;;
14116;SDS011;7137;51.436;6.544;2023-04-29T16:46:30;8.23;;;5.70;;
14116;SDS011;7137;51.436;6.544;2023-04-29T16:49:32;7.77;;;5.27;;
14116;SDS011;7137;51.436;6.544;2023-04-29T16:52:33;7.57;;;5.83;;
14116;SDS011;7137;51.436;6.544;2023-04-29T16:55:36;6.63;;;5.60;;
14116;SDS011;7137;51.436;6.544;2023-04-29T16:58:38;7.83;;;5.33;;
14116;SDS011;7137;51.436;6.544;2023-04-29T17:01:40;6.93;;;5.10;;
14116;SDS011;7137;51.436;6.544;2023-04-29T17:04:41;6.77;;;5.10;;
14116;SDS011;7137;51.436;6.544;2023-04-29T17:07:44;6.47;;;4.93;;
14116;SDS011;7137;51.436;6.544;2023-04-29T17:10:47;6.50;;;5.20;;
14116;SDS011;7137;51.436;6.544;2023-04-29T17:13:48;6.83;;;5.07;;
14116;SDS011;7137;51.436;6.544;2023-04-29T17:16:50;6.50;;;4.90;;
14116;SDS011;7137;51.436;6.544;2023-04-29T17:19:51;5.67;;;4.53;;
14116;SDS011;7137;51.436;6.544;2023-04-29T17:22:54;6.57;;;4.90;;
14116;SDS011;7137;51.436;6.544;2023-04-29T17:25:56;6.57;;;4.53;;
14116;SDS011;7137;51.436;6.544;2023-04-29T17:28:58;6.40;;;4.67;;
14116;SDS011;7137;51.436;6.544;2023-04-29T17:32:00;7.03;;;4.80;;
14116;SDS011;7137;51.436;6.544;2023-04-29T17:35:08;6.23;;;4.80;;
14116;SDS011;7137;51.436;6.544;2023-04-29T17:38:10;5.90;;;4.90;;
14116;SDS011;7137;51.436;6.544;2023-04-29T17:41:13;6.37;;;4.90;;
14116;SDS011;7137;51.436;6.544;2023-04-29T17:44:15;7.23;;;5.03;;
14116;SDS011;7137;51.436;6.544;2023-04-29T17:47:16;6.43;;;4.77;;
14116;SDS011;7137;51.436;6.544;2023-04-29T17:50:18;6.63;;;4.97;;
14116;SDS011;7137;51.436;6.544;2023-04-29T17:53:19;6.00;;;4.20;;
14116;SDS011;7137;51.436;6.544;2023-04-29T17:56:23;6.03;;;4.43;;
14116;SDS011;7137;51.436;6.544;2023-04-29T17:59:25;7.10;;;4.57;;
14116;SDS011;7137;51.436;6.544;2023-04-29T18:02:26;6.80;;;5.20;;
14116;SDS011;7137;51.436;6.544;2023-04-29T18:05:28;7.03;;;5.40;;
14116;SDS011;7137;51.436;6.544;2023-04-29T18:08:29;7.93;;;5.40;;
14116;SDS011;7137;51.436;6.544;2023-04-29T18:11:32;7.77;;;5.50;;
14116;SDS011;7137;51.436;6.544;2023-04-29T18:14:34;7.70;;;5.43;;